Time;durP1;ratioP1;P1;durP2;ratioP2;P2;SDS_P1;SDS_P2;PMS_P1;PMS_P2;Temp;Humidity;BMP_temperature;BMP_pressure;BME280_temperature;BME280_humidity;BME280_pressure;Samples;Min_cycle;Max_cycle;Signal;HPM_P1;HPM_P2
2022/02/16 00:02:24;;;;;;;15.15;11.77;;;;;;;4.84;100.00;100019.38;4964046;28;20412;-75
2022/02/16 00:04:50;;;;;;;16.75;11.40;;;;;;;4.85;100.00;100009.81;4977651;28;20026;-74
2022/02/16 00:07:15;;;;;;;14.02;11.25;;;;;;;4.87;100.00;100007.91;4978747;28;20062;-75
2022/02/16 00:09:41;;;;;;;14.98;11.77;;;;;;;4.82;100.00;100000.50;4988229;28;20038;-75
2022/02/16 00:12:07;;;;;;;15.30;11.57;;;;;;;4.85;100.00;100009.81;4986077;28;20695;-75
2022/02/16 00:14:33;;;;;;;15.05;10.63;;;;;;;4.87;100.00;100002.69;4984732;28;20022;-75
2022/02/16 00:16:59;;;;;;;14.02;10.40;;;;;;;4.83;100.00;99991.75;4981524;28;20113;-74
2022/02/16 00:19:24;;;;;;;13.23;10.18;;;;;;;4.90;100.00;99997.25;4981126;28;20572;-74
2022/02/16 00:21:51;;;;;;;10.73;9.45;;;;;;;4.89;100.00;99993.00;4987249;28;20031;-75
2022/02/16 00:24:17;;;;;;;13.80;9.48;;;;;;;4.87;100.00;99987.13;4961061;28;20034;-75
2022/02/16 00:26:43;;;;;;;14.85;9.40;;;;;;;4.86;100.00;99994.09;4979658;28;20057;-75
2022/02/16 00:29:11;;;;;;;14.65;8.70;;;;;;;4.87;100.00;99982.72;4970647;28;20026;-75
2022/02/16 00:31:40;;;;;;;10.15;7.45;;;;;;;4.94;100.00;99983.06;4968693;28;20033;-75
2022/02/16 00:34:06;;;;;;;8.95;7.68;;;;;;;4.88;100.00;99978.38;4966825;28;20417;-75
2022/02/16 00:36:33;;;;;;;9.68;7.50;;;;;;;4.91;100.00;99979.88;4972432;28;20216;-75
2022/02/16 00:38:59;;;;;;;11.95;7.88;;;;;;;4.90;100.00;99979.06;4981247;28;20085;-74
2022/02/16 00:41:24;;;;;;;9.95;7.85;;;;;;;4.90;100.00;99970.44;4980580;28;20026;-74
2022/02/16 00:43:50;;;;;;;10.52;8.25;;;;;;;4.90;100.00;99966.06;4965490;28;20247;-75
2022/02/16 00:46:16;;;;;;;10.10;8.40;;;;;;;4.92;100.00;99964.16;4951117;28;20049;-75
2022/02/16 00:48:42;;;;;;;9.52;8.13;;;;;;;4.92;100.00;99968.56;4987160;28;20518;-75
2022/02/16 00:51:08;;;;;;;10.43;8.07;;;;;;;4.94;100.00;99964.06;4962097;28;20121;-75
2022/02/16 00:53:34;;;;;;;9.63;8.05;;;;;;;4.92;100.00;99966.78;4965104;28;20145;-75
2022/02/16 00:56:00;;;;;;;10.65;8.88;;;;;;;4.92;100.00;99960.75;4967583;28;20037;-75
2022/02/16 00:58:26;;;;;;;8.80;7.80;;;;;;;4.92;100.00;99947.75;4956316;28;20018;-75
2022/02/16 01:00:51;;;;;;;9.73;8.45;;;;;;;4.95;100.00;99955.28;4956169;28;20035;-75
2022/02/16 01:03:17;;;;;;;11.27;8.77;;;;;;;4.95;100.00;99953.50;4980311;28;20030;-74
2022/02/16 01:05:45;;;;;;;10.27;8.23;;;;;;;4.95;100.00;99944.88;4986593;28;20300;-75
2022/02/16 01:08:12;;;;;;;9.52;8.15;;;;;;;4.97;100.00;99959.41;4973251;28;20081;-75
2022/02/16 01:10:39;;;;;;;9.40;7.85;;;;;;;4.95;100.00;99952.69;4970558;28;20039;-74
2022/02/16 01:13:05;;;;;;;9.63;8.40;;;;;;;4.94;100.00;99945.84;4969032;28;20501;-75
2022/02/16 01:15:32;;;;;;;10.75;8.15;;;;;;;5.00;100.00;99943.53;4966077;28;20049;-75
2022/02/16 01:18:00;;;;;;;8.40;7.50;;;;;;;4.99;100.00;99941.91;4986254;28;20049;-74
2022/02/16 01:20:29;;;;;;;10.57;7.97;;;;;;;4.97;100.00;99936.03;5004656;28;20061;-74
2022/02/16 01:23:00;;;;;;;9.38;7.68;;;;;;;5.02;100.00;99931.25;4974727;28;20042;-75
2022/02/16 01:25:26;;;;;;;8.50;7.60;;;;;;;5.02;100.00;99920.03;4972667;28;20034;-75
2022/02/16 01:27:52;;;;;;;9.23;7.38;;;;;;;5.02;100.00;99918.25;4970429;28;20038;-75
2022/02/16 01:30:21;;;;;;;7.93;6.78;;;;;;;5.02;100.00;99910.44;4982955;28;20041;-75
2022/02/16 01:32:54;;;;;;;8.48;6.75;;;;;;;5.02;100.00;99912.22;4973128;28;20038;-75
2022/02/16 01:35:26;;;;;;;8.48;6.40;;;;;;;5.05;100.00;99917.19;4982554;28;20109;-75
2022/02/16 01:37:52;;;;;;;6.85;6.03;;;;;;;5.04;100.00;99908.53;4987641;28;20039;-75
2022/02/16 01:40:18;;;;;;;8.32;6.60;;;;;;;5.05;100.00;99905.00;4971620;28;20129;-75
2022/02/16 01:42:47;;;;;;;7.90;6.40;;;;;;;5.07;100.00;99897.88;4959054;28;20500;-74
2022/02/16 01:45:37;;;;;;;8.32;6.90;;;;;;;5.07;100.00;99894.47;4990869;28;20050;-75
2022/02/16 01:48:04;;;;;;;10.18;7.43;;;;;;;5.09;100.00;99897.75;4978651;28;20382;-76
2022/02/16 01:50:30;;;;;;;12.07;7.28;;;;;;;5.07;100.00;99897.06;4983438;28;20054;-75
2022/02/16 01:52:55;;;;;;;8.25;7.20;;;;;;;5.03;100.00;99893.91;4975709;28;20081;-75
2022/02/16 01:55:24;;;;;;;8.88;7.47;;;;;;;5.09;100.00;99895.16;4971068;28;20041;-74
2022/02/16 01:57:51;;;;;;;8.40;7.25;;;;;;;5.07;100.00;99892.69;4996807;28;20695;-74
2022/02/16 02:00:21;;;;;;;8.75;7.25;;;;;;;4.99;100.00;99865.69;4973430;28;20113;-75
2022/02/16 02:02:50;;;;;;;10.68;7.93;;;;;;;5.07;100.00;99868.47;4986250;28;20086;-74
2022/02/16 02:05:33;;;;;;;11.15;7.82;;;;;;;5.04;100.00;99863.53;4970534;28;20038;-74
2022/02/16 02:08:02;;;;;;;10.27;8.52;;;;;;;4.97;100.00;99850.25;4970101;28;20050;-74
2022/02/16 02:10:27;;;;;;;14.35;8.65;;;;;;;5.07;100.00;99861.50;4954401;28;20053;-75
2022/02/16 02:12:53;;;;;;;11.38;9.43;;;;;;;5.09;100.00;99858.78;4967719;28;20023;-74
2022/02/16 02:15:24;;;;;;;11.77;8.85;;;;;;;5.13;100.00;99854.13;4977455;28;20113;-74
2022/02/16 02:18:00;;;;;;;12.30;9.70;;;;;;;5.12;100.00;99855.06;4970389;28;20043;-74
2022/02/16 02:20:28;;;;;;;11.57;9.60;;;;;;;5.12;100.00;99862.88;4955701;28;20126;-74
2022/02/16 02:22:54;;;;;;;14.85;10.73;;;;;;;5.12;100.00;99853.28;4973005;28;20040;-74
2022/02/16 02:25:20;;;;;;;14.75;11.02;;;;;;;5.19;100.00;99857.00;4969820;28;20046;-74
2022/02/16 02:27:47;;;;;;;16.95;11.60;;;;;;;5.17;100.00;99856.31;4972389;28;20038;-74
2022/02/16 02:30:13;;;;;;;15.00;11.38;;;;;;;5.19;100.00;99846.59;4981540;28;20559;-74
2022/02/16 02:32:41;;;;;;;16.25;12.93;;;;;;;5.28;100.00;99850.19;4967459;28;20034;-75
2022/02/16 02:35:10;;;;;;;15.48;12.48;;;;;;;5.29;100.00;99844.00;4981076;28;20873;-74
2022/02/16 02:37:39;;;;;;;16.02;12.20;;;;;;;5.31;100.00;99839.50;4986265;28;20397;-73
2022/02/16 02:40:06;;;;;;;15.73;13.10;;;;;;;5.37;100.00;99833.78;4966052;28;20066;-74
2022/02/16 02:42:35;;;;;;;16.50;13.38;;;;;;;5.34;100.00;99830.63;4982329;28;20031;-75
2022/02/16 02:45:03;;;;;;;19.70;14.90;;;;;;;5.37;100.00;99825.97;4955539;28;20030;-75
2022/02/16 02:47:32;;;;;;;17.80;13.43;;;;;;;5.41;100.00;99824.75;4949694;28;20045;-74
2022/02/16 02:49:58;;;;;;;18.88;14.70;;;;;;;5.41;100.00;99816.94;4998148;28;20031;-74
2022/02/16 02:52:24;;;;;;;18.80;15.27;;;;;;;5.41;100.00;99803.13;4965157;28;20045;-74
2022/02/16 02:54:50;;;;;;;17.05;14.55;;;;;;;5.47;100.00;99792.16;4986261;28;20031;-74
2022/02/16 02:57:15;;;;;;;22.10;15.68;;;;;;;5.45;100.00;99797.50;4984976;28;20105;-74
2022/02/16 02:59:41;;;;;;;18.67;15.45;;;;;;;5.52;100.00;99794.34;4979806;28;20034;-74
2022/02/16 03:02:07;;;;;;;21.13;16.23;;;;;;;5.46;100.00;99790.50;4972257;28;20042;-75
2022/02/16 03:04:33;;;;;;;19.98;15.82;;;;;;;5.52;100.00;99794.34;4969791;28;20490;-74
2022/02/16 03:06:59;;;;;;;21.73;15.43;;;;;;;5.57;100.00;99795.56;4984187;28;20078;-74
2022/02/16 03:09:24;;;;;;;20.38;15.48;;;;;;;5.57;100.00;99790.38;4983502;28;20043;-74
2022/02/16 03:11:50;;;;;;;21.25;16.95;;;;;;;5.58;100.00;99789.44;4980897;28;20069;-74
2022/02/16 03:14:17;;;;;;;21.95;16.88;;;;;;;5.59;100.00;99793.66;4972333;28;20077;-74
2022/02/16 03:16:43;;;;;;;20.10;16.88;;;;;;;5.61;100.00;99790.94;4989828;28;20088;-74
2022/02/16 03:19:09;;;;;;;23.23;16.77;;;;;;;5.61;100.00;99807.38;4990020;28;20045;-75
2022/02/16 03:21:35;;;;;;;20.15;15.88;;;;;;;5.63;100.00;99799.41;4989400;28;20030;-74
2022/02/16 03:24:00;;;;;;;23.15;17.33;;;;;;;5.62;100.00;99810.78;4968212;28;20429;-74
2022/02/16 03:26:27;;;;;;;24.75;17.67;;;;;;;5.69;100.00;99814.50;4970595;28;20042;-74
2022/02/16 03:28:52;;;;;;;21.65;16.75;;;;;;;5.68;100.00;99809.41;4973811;28;20110;-74
2022/02/16 03:31:23;;;;;;;24.02;17.90;;;;;;;5.67;100.00;99816.41;4970058;28;20034;-73
2022/02/16 03:33:58;;;;;;;24.90;17.77;;;;;;;5.70;100.00;99820.50;4984078;28;20081;-73
2022/02/16 03:36:26;;;;;;;23.60;17.15;;;;;;;5.71;100.00;99811.72;4980912;28;20079;-74
2022/02/16 03:38:52;;;;;;;22.20;17.08;;;;;;;5.69;100.00;99806.69;4966002;28;20039;-74
2022/02/16 03:41:25;;;;;;;19.55;15.63;;;;;;;5.66;100.00;99804.34;4974081;28;20039;-74
2022/02/16 03:43:52;;;;;;;23.02;16.52;;;;;;;5.69;100.00;99791.09;4964020;28;20496;-73
2022/02/16 03:46:20;;;;;;;21.77;16.65;;;;;;;5.61;100.00;99794.38;4960831;28;20042;-74
2022/02/16 03:48:46;;;;;;;20.42;15.68;;;;;;;5.70;100.00;99786.69;4988051;28;20038;-75
2022/02/16 03:51:13;;;;;;;23.50;16.58;;;;;;;5.68;100.00;99786.00;4987222;28;20039;-75
2022/02/16 03:53:39;;;;;;;23.73;17.15;;;;;;;5.74;100.00;99788.03;4988695;28;20038;-75
2022/02/16 03:56:05;;;;;;;19.95;16.45;;;;;;;5.73;100.00;99784.63;4974462;28;20030;-74
2022/02/16 03:58:32;;;;;;;21.83;16.63;;;;;;;5.73;100.00;99786.41;4975837;28;20042;-74
2022/02/16 04:00:58;;;;;;;22.60;16.80;;;;;;;5.76;100.00;99784.34;4984993;28;20485;-74
2022/02/16 04:03:24;;;;;;;20.38;15.95;;;;;;;5.79;100.00;99781.47;4985973;28;20089;-74
2022/02/16 04:05:51;;;;;;;21.90;16.25;;;;;;;5.78;100.00;99782.44;4971958;28;20061;-74
2022/02/16 04:08:17;;;;;;;22.25;16.67;;;;;;;5.81;100.00;99783.94;4981330;28;20050;-74
2022/02/16 04:10:44;;;;;;;21.58;16.88;;;;;;;5.75;100.00;99781.91;4981084;28;20026;-75
2022/02/16 04:13:13;;;;;;;22.55;17.05;;;;;;;5.72;100.00;99769.97;4986046;28;20381;-74
2022/02/16 04:15:38;;;;;;;21.80;16.13;;;;;;;5.75;100.00;99768.88;4986971;28;20038;-75
2022/02/16 04:18:07;;;;;;;20.98;15.98;;;;;;;5.73;100.00;99778.63;4986604;28;20070;-75
2022/02/16 04:20:33;;;;;;;23.70;16.17;;;;;;;5.70;100.00;99769.28;4991017;28;20531;-75
2022/02/16 04:22:59;;;;;;;22.38;16.00;;;;;;;5.60;100.00;99763.28;4978773;28;20236;-75
2022/02/16 04:25:25;;;;;;;22.30;16.63;;;;;;;5.55;100.00;99758.47;4962141;28;20038;-74
2022/02/16 04:27:52;;;;;;;21.05;15.93;;;;;;;5.54;100.00;99745.59;4970859;28;20050;-75
2022/02/16 04:30:20;;;;;;;22.10;16.40;;;;;;;5.48;100.00;99752.19;4984998;28;20045;-75
2022/02/16 04:32:46;;;;;;;25.08;17.75;;;;;;;5.40;100.00;99734.66;4976891;28;20038;-75
2022/02/16 04:35:13;;;;;;;24.02;16.98;;;;;;;5.49;100.00;99727.81;4969504;28;20034;-75
2022/02/16 04:37:38;;;;;;;20.65;15.70;;;;;;;5.53;100.00;99730.97;4967539;28;20064;-74
2022/02/16 04:40:05;;;;;;;18.65;13.90;;;;;;;5.57;100.00;99722.75;4998379;28;20038;-74
2022/02/16 04:42:31;;;;;;;17.58;13.30;;;;;;;5.57;100.00;99724.53;4987205;28;20046;-75
2022/02/16 04:44:58;;;;;;;20.23;13.57;;;;;;;5.50;100.00;99718.25;4971091;28;20046;-75
2022/02/16 04:47:23;;;;;;;17.58;12.75;;;;;;;5.55;100.00;99713.44;4986861;28;20037;-74
2022/02/16 04:49:49;;;;;;;18.15;12.82;;;;;;;5.60;100.00;99717.28;4969891;28;20093;-72
2022/02/16 04:52:15;;;;;;;16.77;12.82;;;;;;;5.62;100.00;99709.34;4973195;28;20120;-74
2022/02/16 04:54:41;;;;;;;21.95;14.55;;;;;;;5.60;100.00;99711.25;4977199;28;20272;-75
2022/02/16 04:57:07;;;;;;;19.98;13.70;;;;;;;5.63;100.00;99705.75;4990665;28;20374;-73
2022/02/16 04:59:41;;;;;;;16.42;13.02;;;;;;;5.64;100.00;99697.00;4973879;28;20031;-75
2022/02/16 05:02:07;;;;;;;22.63;15.40;;;;;;;5.60;100.00;99687.84;4981039;28;20822;-76
2022/02/16 05:04:33;;;;;;;21.98;16.65;;;;;;;5.62;100.00;99680.72;4985033;28;20041;-76
2022/02/16 05:06:59;;;;;;;23.33;15.50;;;;;;;5.59;100.00;99681.78;4978994;28;20045;-74
2022/02/16 05:09:24;;;;;;;22.80;16.33;;;;;;;5.60;100.00;99685.25;4980423;28;20113;-74
2022/02/16 05:11:50;;;;;;;22.23;16.67;;;;;;;5.62;100.00;99685.91;4991001;28;20103;-74
2022/02/16 05:14:17;;;;;;;23.17;16.63;;;;;;;5.66;100.00;99672.47;4972380;28;20062;-75
2022/02/16 05:16:47;;;;;;;23.92;17.10;;;;;;;5.69;100.00;99670.56;5000072;28;20041;-74
2022/02/16 05:19:14;;;;;;;24.45;16.00;;;;;;;5.68;100.00;99669.75;4981713;28;20038;-74
2022/02/16 05:21:41;;;;;;;22.48;16.23;;;;;;;5.64;100.00;99655.38;4989589;28;20030;-75
2022/02/16 05:24:11;;;;;;;20.20;15.50;;;;;;;5.61;100.00;99650.44;4972810;28;20034;-75
2022/02/16 05:26:40;;;;;;;19.00;13.85;;;;;;;5.65;100.00;99655.25;4977574;28;20055;-75
2022/02/16 05:29:06;;;;;;;19.65;14.00;;;;;;;5.57;100.00;99633.50;4982866;28;20493;-74
2022/02/16 05:31:35;;;;;;;17.05;13.40;;;;;;;5.52;100.00;99614.88;4972261;28;20030;-76
2022/02/16 05:34:01;;;;;;;17.10;12.55;;;;;;;5.51;100.00;99603.66;4981608;28;20034;-75
2022/02/16 05:36:28;;;;;;;20.05;12.13;;;;;;;5.50;100.00;99596.84;4983449;28;20046;-75
2022/02/16 05:38:54;;;;;;;16.38;11.65;;;;;;;5.43;100.00;99601.75;4981070;28;20034;-74
2022/02/16 05:41:21;;;;;;;15.73;11.93;;;;;;;5.38;100.00;99590.16;4967936;28;20034;-75
2022/02/16 05:43:48;;;;;;;16.75;12.35;;;;;;;5.43;100.00;99595.75;4991132;28;20042;-73
2022/02/16 05:46:15;;;;;;;16.02;12.30;;;;;;;5.44;100.00;99585.22;4971289;28;20409;-75
2022/02/16 05:48:42;;;;;;;18.42;12.32;;;;;;;5.47;100.00;99581.50;4985039;28;20027;-75
2022/02/16 05:51:08;;;;;;;15.88;11.50;;;;;;;5.47;100.00;99566.69;5001029;28;20345;-74
2022/02/16 05:53:34;;;;;;;14.27;11.10;;;;;;;5.36;100.00;99563.47;4976154;28;20026;-75
2022/02/16 05:55:59;;;;;;;13.55;10.52;;;;;;;5.34;100.00;99557.59;5001851;28;20038;-74
2022/02/16 05:58:25;;;;;;;15.00;10.65;;;;;;;5.37;100.00;99560.72;4971914;28;20037;-74
2022/02/16 06:00:51;;;;;;;16.92;11.02;;;;;;;5.38;100.00;99545.94;4974753;28;20126;-75
2022/02/16 06:03:29;;;;;;;15.50;10.43;;;;;;;5.33;100.00;99535.13;4968071;28;20026;-74
2022/02/16 06:05:55;;;;;;;13.90;10.57;;;;;;;5.32;100.00;99530.91;4959639;28;20061;-75
2022/02/16 06:08:21;;;;;;;11.70;9.73;;;;;;;5.34;100.00;99521.19;4967592;28;20133;-74
2022/02/16 06:10:48;;;;;;;13.48;9.60;;;;;;;5.34;100.00;99522.00;4988486;28;20074;-75
2022/02/16 06:13:14;;;;;;;14.27;10.15;;;;;;;5.36;100.00;99514.06;4973183;28;20133;-73
2022/02/16 06:15:41;;;;;;;12.13;9.70;;;;;;;5.34;100.00;99506.41;4967267;28;20027;-74
2022/02/16 06:18:07;;;;;;;13.07;9.30;;;;;;;5.40;100.00;99503.22;4968991;28;20089;-74
2022/02/16 06:20:33;;;;;;;12.43;9.55;;;;;;;5.40;100.00;99490.22;4960785;28;20041;-74
2022/02/16 06:22:59;;;;;;;11.55;8.57;;;;;;;5.45;100.00;99497.59;4960301;28;20033;-75
2022/02/16 06:25:25;;;;;;;11.57;9.07;;;;;;;5.45;100.00;99500.19;4976357;28;20034;-75
2022/02/16 06:27:51;;;;;;;12.38;9.65;;;;;;;5.47;100.00;99496.47;4987609;28;20034;-75
2022/02/16 06:30:17;;;;;;;12.63;8.60;;;;;;;5.49;100.00;99498.13;4968998;28;20451;-74
2022/02/16 06:32:58;;;;;;;10.68;8.40;;;;;;;5.49;100.00;99495.53;4971210;28;20034;-74
2022/02/16 06:35:24;;;;;;;11.07;8.23;;;;;;;5.46;100.00;99492.25;4959130;28;20038;-75
2022/02/16 06:37:51;;;;;;;10.02;8.32;;;;;;;5.47;100.00;99480.88;4983404;28;20109;-74
2022/02/16 06:40:16;;;;;;;12.57;8.25;;;;;;;5.51;100.00;99476.22;4979487;28;20488;-74
2022/02/16 06:42:45;;;;;;;10.93;8.27;;;;;;;5.52;100.00;99482.22;4988819;28;20027;-74
2022/02/16 06:45:12;;;;;;;9.77;8.20;;;;;;;5.42;100.00;99462.28;4970751;28;20034;-74
2022/02/16 06:47:42;;;;;;;12.60;9.10;;;;;;;5.39;100.00;99452.19;4985444;28;20041;-75
2022/02/16 06:50:09;;;;;;;10.32;8.07;;;;;;;5.45;100.00;99437.78;4985150;28;20061;-75
2022/02/16 06:52:37;;;;;;;12.48;8.07;;;;;;;5.44;100.00;99426.56;4973423;28;20038;-74
2022/02/16 06:55:03;;;;;;;10.82;7.72;;;;;;;5.44;100.00;99413.56;4965541;28;20567;-74
2022/02/16 06:57:30;;;;;;;11.32;8.15;;;;;;;5.42;100.00;99396.47;4976619;28;20066;-74
2022/02/16 06:59:59;;;;;;;9.80;7.93;;;;;;;5.39;100.00;99383.75;4974512;28;20093;-74
2022/02/16 07:02:25;;;;;;;9.77;7.40;;;;;;;5.42;100.00;99388.66;4955036;28;20043;-74
2022/02/16 07:04:53;;;;;;;10.82;7.32;;;;;;;5.41;100.00;99382.66;4955746;28;20035;-74
2022/02/16 07:07:19;;;;;;;10.35;7.53;;;;;;;5.35;100.00;99369.41;4955469;28;20034;-74
2022/02/16 07:09:45;;;;;;;10.10;6.93;;;;;;;5.41;100.00;99369.63;4989652;28;20465;-75
2022/02/16 07:12:10;;;;;;;8.82;6.60;;;;;;;5.45;100.00;99370.97;4970133;28;20061;-74
2022/02/16 07:14:36;;;;;;;7.53;6.15;;;;;;;5.42;100.00;99355.66;4977201;28;20030;-75
2022/02/16 07:17:02;;;;;;;8.85;6.88;;;;;;;5.42;100.00;99345.25;4986784;28;20037;-74
2022/02/16 07:19:28;;;;;;;7.30;6.05;;;;;;;5.43;100.00;99341.72;4974619;28;20042;-75
2022/02/16 07:22:20;;;;;;;8.60;6.05;;;;;;;5.42;100.00;99337.47;4986053;28;20409;-74
2022/02/16 07:24:47;;;;;;;7.32;5.95;;;;;;;5.46;100.00;99333.63;4951831;28;20030;-75
2022/02/16 07:27:12;;;;;;;7.18;6.03;;;;;;;5.52;100.00;99331.38;4945612;28;20041;-75
2022/02/16 07:29:38;;;;;;;8.20;6.15;;;;;;;5.56;100.00;99324.94;4990929;28;20030;-74
2022/02/16 07:32:05;;;;;;;11.40;7.03;;;;;;;5.55;100.00;99318.06;4974869;28;20026;-75
2022/02/16 07:34:32;;;;;;;9.65;7.15;;;;;;;5.58;100.00;99303.00;4972304;28;20500;-74
2022/02/16 07:37:01;;;;;;;8.63;7.00;;;;;;;5.61;100.00;99307.06;4982756;28;20477;-74
2022/02/16 07:39:28;;;;;;;8.70;6.85;;;;;;;5.62;100.00;99311.31;4987167;28;20093;-74
2022/02/16 07:41:55;;;;;;;8.50;6.63;;;;;;;5.61;100.00;99300.09;4983112;28;20117;-74
2022/02/16 07:44:59;;;;;;;8.45;6.57;;;;;;;5.67;100.00;99290.88;4967535;28;20644;-75
2022/02/16 07:47:28;;;;;;;9.48;6.20;;;;;;;5.72;100.00;99285.22;4964279;28;20191;-74
2022/02/16 07:49:59;;;;;;;7.70;6.03;;;;;;;5.68;100.00;99276.91;4960690;28;20066;-75
2022/02/16 07:52:45;;;;;;;8.70;6.95;;;;;;;5.74;100.00;99272.88;4987860;28;20038;-76
2022/02/16 07:55:38;;;;;;;8.23;6.88;;;;;;;5.76;100.00;99265.72;4972612;28;20046;-75
2022/02/16 07:58:06;;;;;;;8.38;6.65;;;;;;;5.82;100.00;99267.72;4951214;28;20497;-75
2022/02/16 08:00:33;;;;;;;9.27;6.70;;;;;;;5.84;100.00;99258.81;4995919;28;20416;-75
2022/02/16 08:03:07;;;;;;;7.57;6.07;;;;;;;5.83;100.00;99244.16;4963953;28;20038;-74
2022/02/16 08:05:34;;;;;;;10.65;6.80;;;;;;;5.88;100.00;99233.31;4968058;28;20047;-75
2022/02/16 08:08:00;;;;;;;8.02;6.55;;;;;;;5.89;100.00;99234.09;4973725;28;20038;-74
2022/02/16 08:10:25;;;;;;;8.15;7.05;;;;;;;5.94;100.00;99216.25;4966244;28;20088;-74
2022/02/16 08:12:56;;;;;;;7.13;6.00;;;;;;;5.96;100.00;99216.94;4968935;28;20047;-74
2022/02/16 08:15:27;;;;;;;8.57;6.05;;;;;;;5.95;100.00;99212.66;4945032;28;20031;-75
2022/02/16 08:17:53;;;;;;;7.03;6.32;;;;;;;5.89;100.00;99195.88;4976810;28;20116;-74
2022/02/16 08:20:19;;;;;;;8.10;6.05;;;;;;;5.96;100.00;99199.53;4967453;28;20058;-75
2022/02/16 08:23:01;;;;;;;7.95;5.50;;;;;;;5.94;100.00;99187.63;4969488;28;20038;-74
2022/02/16 08:25:27;;;;;;;6.65;5.78;;;;;;;6.03;100.00;99177.13;4962970;28;20042;-75
2022/02/16 08:28:03;;;;;;;7.00;5.30;;;;;;;6.00;100.00;99174.03;4974852;28;20496;-74
2022/02/16 08:30:29;;;;;;;6.13;5.50;;;;;;;5.96;100.00;99162.28;4953251;28;20133;-74
2022/02/16 08:32:55;;;;;;;6.03;5.45;;;;;;;5.96;100.00;99162.28;4989250;28;20507;-74
2022/02/16 08:35:30;;;;;;;6.18;5.18;;;;;;;5.95;100.00;99156.28;4979616;28;20030;-75
2022/02/16 08:37:57;;;;;;;7.03;5.72;;;;;;;5.96;100.00;99149.28;4976487;28;20038;-75
2022/02/16 08:40:23;;;;;;;6.38;5.05;;;;;;;6.02;100.00;99146.84;4966234;28;20046;-75
2022/02/16 08:42:49;;;;;;;6.07;5.40;;;;;;;6.06;100.00;99136.13;4988460;28;20515;-75
2022/02/16 08:45:14;;;;;;;5.95;5.35;;;;;;;5.95;100.00;99122.44;4987953;28;20030;-75
2022/02/16 08:47:40;;;;;;;6.20;4.47;;;;;;;5.98;100.00;99127.31;4989112;28;20034;-75
2022/02/16 08:50:07;;;;;;;8.10;5.40;;;;;;;6.03;100.00;99117.25;4991227;28;20037;-75
2022/02/16 08:52:33;;;;;;;6.95;4.95;;;;;;;6.04;100.00;99108.47;4969993;28;20105;-74
2022/02/16 08:54:58;;;;;;;5.50;4.68;;;;;;;6.01;100.00;99094.97;4970899;28;20160;-74
2022/02/16 08:57:24;;;;;;;5.30;4.50;;;;;;;6.04;100.00;99090.25;4974600;28;20401;-74
2022/02/16 08:59:50;;;;;;;4.28;3.88;;;;;;;6.03;100.00;99083.44;4987767;28;20030;-75
2022/02/16 09:02:16;;;;;;;4.85;4.25;;;;;;;5.97;100.00;99065.00;4990627;28;20045;-75
2022/02/16 09:04:41;;;;;;;4.20;3.80;;;;;;;6.03;100.00;99056.59;4978185;28;20089;-75
2022/02/16 09:09:51;;;;;;;4.22;3.67;;;;;;;6.16;100.00;99050.91;4982557;28;20042;-75
2022/02/16 09:12:17;;;;;;;4.25;3.80;;;;;;;6.13;100.00;99040.81;4985161;28;20041;-75
2022/02/16 09:14:42;;;;;;;3.53;3.13;;;;;;;6.14;100.00;99024.22;4996460;28;20043;-74
2022/02/16 09:17:08;;;;;;;4.20;3.17;;;;;;;6.14;100.00;99008.59;4971816;28;20408;-75
2022/02/16 09:19:35;;;;;;;4.18;3.10;;;;;;;6.16;100.00;99004.88;4986293;28;20026;-75
2022/02/16 09:22:01;;;;;;;3.63;2.72;;;;;;;6.18;100.00;98991.72;4988961;28;20472;-75
2022/02/16 09:24:28;;;;;;;3.22;2.92;;;;;;;6.15;100.00;98984.22;4965025;28;20047;-75
2022/02/16 09:26:54;;;;;;;2.55;2.30;;;;;;;6.12;100.00;98977.53;4965245;28;20049;-75
2022/02/16 09:29:20;;;;;;;2.67;2.47;;;;;;;6.16;100.00;98965.00;4971324;28;20113;-75
2022/02/16 09:31:49;;;;;;;2.47;2.13;;;;;;;6.13;100.00;98958.34;4968730;28;20386;-75
2022/02/16 09:34:15;;;;;;;3.15;2.10;;;;;;;6.17;100.00;98949.22;4982730;28;20026;-75
2022/02/16 09:36:41;;;;;;;1.80;1.70;;;;;;;6.18;100.00;98935.25;4988685;28;20042;-75
2022/02/16 09:39:07;;;;;;;3.13;1.85;;;;;;;6.17;100.00;98925.78;4983779;28;20107;-75
2022/02/16 09:41:32;;;;;;;2.00;1.70;;;;;;;6.19;100.00;98913.41;4971150;28;20031;-75
2022/02/16 09:43:58;;;;;;;1.77;1.52;;;;;;;6.27;100.00;98919.59;4985991;28;20116;-75
2022/02/16 09:46:24;;;;;;;3.88;1.40;;;;;;;6.35;100.00;98911.81;5006795;28;20037;-75
2022/02/16 09:48:50;;;;;;;1.77;1.30;;;;;;;6.36;100.00;98898.59;4992780;28;20041;-75
2022/02/16 09:51:18;;;;;;;1.65;1.17;;;;;;;6.38;100.00;98895.84;4976218;28;20057;-75
2022/02/16 09:53:44;;;;;;;3.50;1.40;;;;;;;6.39;100.00;98894.88;4974791;28;20092;-75
2022/02/16 09:56:10;;;;;;;1.25;1.10;;;;;;;6.48;100.00;98895.66;4979256;28;20141;-76
2022/02/16 09:58:37;;;;;;;2.67;1.20;;;;;;;6.48;100.00;98878.25;4959215;28;20559;-75
2022/02/16 10:01:11;;;;;;;1.13;1.00;;;;;;;6.53;100.00;98870.75;4989731;28;20085;-76
2022/02/16 10:03:37;;;;;;;2.33;1.23;;;;;;;6.58;100.00;98876.28;4955891;28;20097;-75
2022/02/16 10:06:04;;;;;;;1.00;0.90;;;;;;;6.62;100.00;98863.72;4970284;28;20512;-75
2022/02/16 10:08:45;;;;;;;1.42;1.13;;;;;;;6.68;100.00;98857.03;4982189;28;20034;-75
2022/02/16 10:11:15;;;;;;;1.92;1.10;;;;;;;6.74;100.00;98853.75;4953277;28;20041;-75
2022/02/16 10:13:42;;;;;;;1.25;0.93;;;;;;;6.87;100.00;98848.81;4971825;28;20062;-75
2022/02/16 10:16:08;;;;;;;0.80;0.80;;;;;;;6.94;100.00;98847.16;4960258;28;20039;-75
2022/02/16 10:18:56;;;;;;;3.35;1.05;;;;;;;6.99;100.00;98847.47;4988818;28;20466;-76
2022/02/16 10:21:21;;;;;;;1.08;1.08;;;;;;;7.06;100.00;98847.59;4956321;28;20046;-75
2022/02/16 10:23:48;;;;;;;1.10;0.95;;;;;;;7.15;100.00;98837.97;4978715;28;20038;-76
2022/02/16 10:26:13;;;;;;;1.13;1.00;;;;;;;7.25;100.00;98828.09;4986790;28;20101;-75
2022/02/16 10:28:52;;;;;;;2.58;0.93;;;;;;;7.30;100.00;98838.84;4989124;28;20425;-74
2022/02/16 10:31:18;;;;;;;1.20;0.98;;;;;;;7.30;100.00;98841.44;4987855;28;20033;-75
2022/02/16 10:33:46;;;;;;;0.70;0.70;;;;;;;7.35;100.00;98830.53;4989863;28;20023;-74
2022/02/16 10:36:19;;;;;;;0.93;0.82;;;;;;;7.41;100.00;98835.84;4988927;28;20045;-76
2022/02/16 10:39:12;;;;;;;0.82;0.80;;;;;;;7.50;100.00;98815.75;4973241;28;20034;-75
2022/02/16 10:41:50;;;;;;;2.70;0.90;;;;;;;7.55;100.00;98823.88;4984479;28;20093;-77
2022/02/16 10:44:36;;;;;;;0.70;0.70;;;;;;;7.56;100.00;98824.69;4964560;28;20042;-74
2022/02/16 10:47:10;;;;;;;0.85;0.73;;;;;;;7.62;100.00;98821.38;4987510;28;20039;-75
2022/02/16 10:49:47;;;;;;;0.82;0.82;;;;;;;7.67;100.00;98810.41;4967051;28;20054;-75
2022/02/16 10:52:15;;;;;;;0.77;0.77;;;;;;;7.69;100.00;98817.06;4967488;28;20598;-76
2022/02/16 10:54:59;;;;;;;0.90;0.90;;;;;;;7.71;100.00;98796.03;4967521;28;20406;-75
2022/02/16 10:57:26;;;;;;;1.02;0.90;;;;;;;7.79;100.00;98801.97;4987969;28;20061;-76
2022/02/16 10:59:53;;;;;;;1.85;0.82;;;;;;;7.84;100.00;98791.03;4992586;28;20039;-75
2022/02/16 11:02:22;;;;;;;1.00;1.00;;;;;;;7.86;100.00;98796.88;4988385;28;20030;-75
2022/02/16 11:04:51;;;;;;;1.10;1.08;;;;;;;7.90;100.00;98792.13;4989784;28;20062;-74
2022/02/16 11:07:19;;;;;;;1.15;1.05;;;;;;;7.95;100.00;98787.19;4989172;28;20037;-75
2022/02/16 11:09:49;;;;;;;1.42;0.93;;;;;;;8.03;100.00;98784.47;4988057;28;20070;-76
2022/02/16 11:12:16;;;;;;;0.90;0.90;;;;;;;8.07;100.00;98784.94;4979029;28;20033;-75
2022/02/16 11:14:44;;;;;;;2.00;1.15;;;;;;;8.16;100.00;98786.50;4970064;28;20031;-75
2022/02/16 11:17:11;;;;;;;1.00;0.90;;;;;;;8.15;100.00;98771.78;4972700;28;20880;-75
2022/02/16 11:19:38;;;;;;;1.20;1.10;;;;;;;8.30;100.00;98761.34;4976561;28;20390;-74
2022/02/16 11:22:14;;;;;;;1.10;1.10;;;;;;;8.39;100.00;98758.47;4989119;28;20061;-75
2022/02/16 11:24:45;;;;;;;1.27;1.20;;;;;;;8.46;100.00;98768.25;4989366;28;20528;-75
2022/02/16 11:27:32;;;;;;;1.33;1.20;;;;;;;8.47;100.00;98747.13;4973925;28;20034;-74
2022/02/16 11:30:00;;;;;;;1.33;1.10;;;;;;;8.57;100.00;98750.31;4977811;28;20066;-75
2022/02/16 11:32:41;;;;;;;1.05;1.05;;;;;;;8.57;100.00;98759.94;4963501;28;20034;-75
2022/02/16 11:35:27;;;;;;;0.93;0.93;;;;;;;8.66;100.00;98758.84;4968396;28;20038;-75